Dallas, Texas
Traffic Map
Current Weather Conditions
Dallas, Texas
Overcast
Overcast
50°
Feels Like: 50°
Wind Chill: 50° Ceiling: 3000
Heat Index: 50° Visibility: 10mi
Dew Point: 46° Wind: 10mph
Humidity: 86% Direction: 170° (S)
Pressure: 30.02in Gusts: 0mph
Raw Report DataKDAL 121253Z 17009KT 10SM BKN030 BKN180 OVC210 10/08 A3002 RMK AO2 SLP164 T01000078 $
Traffic Incident Summary
Active as of:
Severity:
Category:
InformationThere was an issue retrieving the traffic information for this location. Please try a different location or try again shortly.
Advertisements